Time;durP1;ratioP1;P1;durP2;ratioP2;P2;SDS_P1;SDS_P2;PMS_P1;PMS_P2;Temp;Humidity;BMP_temperature;BMP_pressure;BME280_temperature;BME280_humidity;BME280_pressure;Samples;Min_cycle;Max_cycle;Signal;HPM_P1;HPM_P2
2023/03/05 00:01:08;;;;;;;2.40;0.87;;;3.00;99.90;;;;;;5137621;27;20435;-76
2023/03/05 00:03:35;;;;;;;5.30;1.00;;;3.00;99.90;;;;;;5137527;27;20481;-76
2023/03/05 00:06:02;;;;;;;1.13;1.13;;;3.00;99.90;;;;;;5137521;27;20498;-76
2023/03/05 00:08:29;;;;;;;1.60;0.83;;;3.10;99.90;;;;;;5137095;27;20466;-77
2023/03/05 00:10:57;;;;;;;3.30;2.80;;;3.10;99.90;;;;;;5137471;27;20447;-76
2023/03/05 00:13:26;;;;;;;1.53;0.63;;;3.10;99.90;;;;;;5137406;27;20476;-76
2023/03/05 00:15:52;;;;;;;0.80;0.80;;;3.10;99.90;;;;;;5137364;27;20450;-77
2023/03/05 00:18:21;;;;;;;4.43;0.90;;;3.10;99.90;;;;;;5137265;27;20462;-77
2023/03/05 00:20:48;;;;;;;2.30;2.10;;;3.20;99.90;;;;;;5137262;27;20475;-76
2023/03/05 00:23:15;;;;;;;0.70;0.70;;;3.10;99.90;;;;;;5136819;27;20474;-76
2023/03/05 00:25:42;;;;;;;6.70;1.53;;;3.10;99.90;;;;;;5137154;27;20455;-76
2023/03/05 00:28:09;;;;;;;1.63;0.60;;;3.10;99.90;;;;;;5137039;27;20471;-77
2023/03/05 00:30:37;;;;;;;0.70;0.50;;;3.10;99.90;;;;;;5137050;27;20450;-76
2023/03/05 00:33:04;;;;;;;0.70;0.70;;;3.10;99.90;;;;;;5136700;27;20446;-76
2023/03/05 00:35:31;;;;;;;3.37;0.70;;;3.10;99.90;;;;;;5136420;27;20820;-76
2023/03/05 00:37:58;;;;;;;1.63;0.70;;;3.10;99.90;;;;;;5137037;27;20496;-76
2023/03/05 00:40:25;;;;;;;6.20;2.00;;;3.10;99.90;;;;;;5136870;27;20500;-76
2023/03/05 00:42:51;;;;;;;1.57;1.20;;;3.10;99.90;;;;;;5136821;27;20453;-76
2023/03/05 00:45:18;;;;;;;4.37;0.97;;;3.00;99.90;;;;;;5136722;27;20519;-76
2023/03/05 00:47:46;;;;;;;0.50;0.50;;;3.00;99.90;;;;;;5136713;27;20858;-76
2023/03/05 00:50:13;;;;;;;1.93;1.83;;;3.00;99.90;;;;;;5136670;27;20814;-76
2023/03/05 00:52:39;;;;;;;9.33;1.13;;;3.00;99.90;;;;;;5136641;27;20443;-76
2023/03/05 00:55:07;;;;;;;5.03;2.13;;;3.10;99.90;;;;;;5136574;27;20442;-76
2023/03/05 00:57:33;;;;;;;0.73;0.73;;;3.10;99.90;;;;;;5136494;27;20463;-76
2023/03/05 01:00:00;;;;;;;1.40;1.30;;;3.00;99.90;;;;;;5136488;27;20454;-76
2023/03/05 01:02:27;;;;;;;1.17;1.17;;;3.00;99.90;;;;;;5136124;27;20451;-76
2023/03/05 01:04:55;;;;;;;3.33;1.20;;;3.00;99.90;;;;;;5135745;27;20843;-76
2023/03/05 01:07:21;;;;;;;7.00;1.77;;;3.00;99.90;;;;;;5136256;27;20463;-76
2023/03/05 01:09:48;;;;;;;1.77;1.30;;;3.00;99.90;;;;;;5136283;27;20503;-76
2023/03/05 01:12:15;;;;;;;0.70;0.60;;;3.00;99.90;;;;;;5136259;27;20491;-76
2023/03/05 01:14:41;;;;;;;9.70;2.20;;;3.10;99.90;;;;;;5136182;27;20443;-76
2023/03/05 01:17:08;;;;;;;0.70;0.57;;;3.00;99.90;;;;;;5136108;27;20823;-76
2023/03/05 01:19:35;;;;;;;0.73;0.73;;;3.00;99.90;;;;;;5135789;27;20842;-76
2023/03/05 01:22:03;;;;;;;0.60;0.60;;;3.00;99.90;;;;;;5135720;27;20559;-76
2023/03/05 01:24:30;;;;;;;0.87;0.77;;;3.00;99.90;;;;;;5135957;27;20482;-76
2023/03/05 01:26:57;;;;;;;1.10;1.00;;;2.90;99.90;;;;;;5135555;27;20983;-76
2023/03/05 01:29:24;;;;;;;7.00;1.20;;;3.00;99.90;;;;;;5135593;27;20442;-76
2023/03/05 01:31:51;;;;;;;6.23;1.07;;;2.90;99.90;;;;;;5135578;27;20963;-76
2023/03/05 01:34:17;;;;;;;4.57;1.23;;;3.00;99.90;;;;;;5135539;27;20806;-76
2023/03/05 01:36:44;;;;;;;5.30;1.13;;;3.00;99.90;;;;;;5135250;27;20993;-76
2023/03/05 01:39:12;;;;;;;0.50;0.50;;;3.00;99.90;;;;;;5135617;27;20511;-76
2023/03/05 01:41:39;;;;;;;1.10;0.80;;;2.90;99.90;;;;;;5135380;27;20479;-75
2023/03/05 01:44:06;;;;;;;1.23;1.07;;;2.90;99.90;;;;;;5135541;27;20487;-76
2023/03/05 01:46:34;;;;;;;1.67;0.50;;;2.90;99.90;;;;;;5135591;27;20443;-76
2023/03/05 01:49:11;;;;;;;3.00;1.00;;;2.90;99.90;;;;;;5135471;27;20504;-76
2023/03/05 01:51:42;;;;;;;1.37;1.03;;;2.90;99.90;;;;;;5135517;27;20427;-76
2023/03/05 01:54:14;;;;;;;0.90;0.80;;;2.80;99.90;;;;;;5135433;27;20423;-76
2023/03/05 01:56:41;;;;;;;1.20;0.90;;;2.80;99.90;;;;;;5135450;27;20796;-76
2023/03/05 01:59:08;;;;;;;0.83;0.80;;;2.80;99.90;;;;;;5135254;27;20462;-76
2023/03/05 02:01:40;;;;;;;0.80;0.80;;;2.80;99.90;;;;;;5135262;27;20446;-75
2023/03/05 02:04:09;;;;;;;1.90;1.03;;;2.80;99.90;;;;;;5135184;27;20512;-76
2023/03/05 02:06:36;;;;;;;2.93;1.07;;;2.90;99.90;;;;;;5134855;27;20447;-76
2023/03/05 02:09:03;;;;;;;8.80;2.03;;;2.80;99.90;;;;;;5135079;27;20520;-76
2023/03/05 02:11:32;;;;;;;15.03;2.40;;;2.80;99.90;;;;;;5135126;27;20590;-76
2023/03/05 02:13:59;;;;;;;1.37;1.07;;;2.80;99.90;;;;;;5135048;27;20438;-76
2023/03/05 02:16:26;;;;;;;1.53;0.90;;;2.80;99.90;;;;;;5134147;27;20805;-76
2023/03/05 02:18:53;;;;;;;1.13;0.70;;;2.80;99.90;;;;;;5134943;27;20550;-76
2023/03/05 02:21:29;;;;;;;0.60;0.60;;;2.80;99.90;;;;;;5134932;27;20447;-76
2023/03/05 02:23:56;;;;;;;0.93;0.83;;;2.80;99.90;;;;;;5134860;27;20832;-77
2023/03/05 02:26:23;;;;;;;1.67;0.80;;;2.80;99.90;;;;;;5134823;27;20462;-77
2023/03/05 02:28:53;;;;;;;1.43;1.43;;;2.70;99.90;;;;;;5134758;27;20869;-77
2023/03/05 02:31:23;;;;;;;3.00;0.70;;;2.80;99.90;;;;;;5134486;27;20427;-76
2023/03/05 02:33:50;;;;;;;15.27;1.53;;;2.80;99.90;;;;;;5134729;27;20451;-76
2023/03/05 02:36:17;;;;;;;3.70;0.90;;;2.80;99.90;;;;;;5134233;27;20482;-77
2023/03/05 02:38:46;;;;;;;7.30;1.40;;;2.80;99.90;;;;;;5134627;27;20474;-77
2023/03/05 02:41:14;;;;;;;0.60;0.60;;;2.90;99.90;;;;;;5134365;27;20458;-77
2023/03/05 02:43:40;;;;;;;2.17;1.73;;;2.80;99.90;;;;;;5134609;27;20446;-77
2023/03/05 02:46:08;;;;;;;1.07;0.97;;;2.80;99.90;;;;;;5134188;27;20502;-76
2023/03/05 02:48:34;;;;;;;3.13;1.63;;;2.90;99.90;;;;;;5134160;27;20480;-76
2023/03/05 02:51:02;;;;;;;1.87;0.57;;;2.90;99.90;;;;;;5134515;27;20442;-77
2023/03/05 02:53:29;;;;;;;9.20;1.07;;;2.90;99.90;;;;;;5134366;27;20451;-77
2023/03/05 02:55:57;;;;;;;3.20;2.47;;;2.90;99.90;;;;;;5134461;27;20438;-76
2023/03/05 02:58:24;;;;;;;1.50;1.07;;;2.90;99.90;;;;;;5134350;27;20473;-76
2023/03/05 03:00:51;;;;;;;1.60;1.60;;;2.90;99.90;;;;;;5134050;27;20442;-76
2023/03/05 03:03:17;;;;;;;0.70;0.70;;;2.80;99.90;;;;;;5134065;27;20450;-76
2023/03/05 03:05:44;;;;;;;1.23;1.23;;;2.90;99.90;;;;;;5134259;27;20479;-76
2023/03/05 03:08:11;;;;;;;3.03;2.63;;;2.90;99.90;;;;;;5134227;27;20462;-77
2023/03/05 03:10:37;;;;;;;2.13;1.93;;;2.80;99.90;;;;;;5134328;27;20439;-76
2023/03/05 03:13:05;;;;;;;3.27;0.70;;;2.80;99.90;;;;;;5134302;27;20439;-76
2023/03/05 03:15:32;;;;;;;6.10;1.67;;;2.80;99.90;;;;;;5134206;27;20443;-77
2023/03/05 03:17:59;;;;;;;3.47;1.57;;;2.70;99.90;;;;;;5134167;27;20467;-77
2023/03/05 03:20:25;;;;;;;2.40;1.00;;;2.80;99.90;;;;;;5134225;27;20450;-76
2023/03/05 03:22:52;;;;;;;0.73;0.63;;;2.80;99.90;;;;;;5133872;27;20453;-77
2023/03/05 03:25:22;;;;;;;1.13;0.70;;;2.80;99.90;;;;;;5134080;27;20547;-77
2023/03/05 03:27:49;;;;;;;0.50;0.50;;;2.90;99.90;;;;;;5137394;27;20498;-77
2023/03/05 03:30:17;;;;;;;1.50;1.00;;;2.90;99.90;;;;;;5138295;27;20445;-76
2023/03/05 03:32:44;;;;;;;1.73;1.30;;;2.90;99.90;;;;;;5138175;27;20491;-77
2023/03/05 03:35:12;;;;;;;1.43;1.23;;;2.90;99.90;;;;;;5137623;27;20953;-79
2023/03/05 03:37:38;;;;;;;2.83;1.27;;;2.90;99.90;;;;;;5138067;27;20470;-79
2023/03/05 03:40:07;;;;;;;4.33;1.77;;;2.90;99.90;;;;;;5138100;27;20496;-79
2023/03/05 03:42:33;;;;;;;2.47;1.00;;;2.90;99.90;;;;;;5138031;27;20438;-79
2023/03/05 03:45:01;;;;;;;3.23;1.03;;;3.00;99.90;;;;;;5138534;27;20554;-79
2023/03/05 03:47:29;;;;;;;1.30;1.30;;;2.90;99.90;;;;;;5137822;27;20565;-79
2023/03/05 03:49:55;;;;;;;2.30;1.03;;;2.90;99.90;;;;;;5137887;27;20447;-79
2023/03/05 03:52:22;;;;;;;0.53;0.53;;;2.90;99.90;;;;;;5137820;27;20500;-79
2023/03/05 03:54:51;;;;;;;1.13;0.90;;;2.90;99.90;;;;;;5137792;27;20529;-79
2023/03/05 03:57:17;;;;;;;2.33;2.13;;;2.90;99.90;;;;;;5137681;27;20489;-79
2023/03/05 03:59:44;;;;;;;1.43;1.33;;;2.90;99.90;;;;;;5137396;27;20983;-79
2023/03/05 04:02:11;;;;;;;2.63;0.67;;;2.90;99.90;;;;;;5137596;27;20473;-79
2023/03/05 04:04:39;;;;;;;2.03;1.93;;;2.90;99.90;;;;;;5137185;27;20989;-79
2023/03/05 04:07:06;;;;;;;1.90;0.63;;;2.90;99.90;;;;;;5137149;27;20857;-79
2023/03/05 04:09:33;;;;;;;1.57;0.97;;;2.90;99.90;;;;;;5137493;27;20869;-79
2023/03/05 04:11:59;;;;;;;2.00;1.03;;;2.80;99.90;;;;;;5137433;27;20480;-79
2023/03/05 04:14:26;;;;;;;7.23;0.90;;;2.80;99.90;;;;;;5137411;27;20458;-79
2023/03/05 04:16:53;;;;;;;8.23;2.87;;;2.80;99.90;;;;;;5137276;27;20438;-79
2023/03/05 04:19:19;;;;;;;0.30;0.30;;;2.80;99.90;;;;;;5137325;27;20442;-79
2023/03/05 04:21:47;;;;;;;0.40;0.33;;;2.80;99.90;;;;;;5137279;27;20495;-79
2023/03/05 04:24:14;;;;;;;0.97;0.90;;;2.80;99.90;;;;;;5137192;27;20495;-79
2023/03/05 04:26:41;;;;;;;1.17;0.97;;;2.80;99.90;;;;;;5137100;27;20477;-79
2023/03/05 04:29:07;;;;;;;5.50;1.23;;;2.80;99.90;;;;;;5136727;27;20474;-79
2023/03/05 04:31:34;;;;;;;1.10;0.83;;;2.80;99.90;;;;;;5136767;27;20846;-79
2023/03/05 04:34:01;;;;;;;0.30;0.30;;;2.80;99.90;;;;;;5137015;27;20508;-79
2023/03/05 04:36:27;;;;;;;1.90;0.53;;;2.80;99.90;;;;;;5136598;27;20495;-79
2023/03/05 04:38:55;;;;;;;0.90;0.60;;;2.90;99.90;;;;;;5135903;27;20473;-79
2023/03/05 04:41:22;;;;;;;0.67;0.53;;;2.90;99.90;;;;;;5136895;27;20450;-79
2023/03/05 04:43:49;;;;;;;1.43;0.70;;;2.90;99.90;;;;;;5136530;27;20443;-75
2023/03/05 04:46:15;;;;;;;4.10;1.17;;;2.90;99.90;;;;;;5136667;27;20482;-75
2023/03/05 04:48:42;;;;;;;1.07;0.97;;;2.90;99.90;;;;;;5136676;27;20459;-75
2023/03/05 04:51:09;;;;;;;0.57;0.47;;;2.90;99.90;;;;;;5136722;27;20439;-75
2023/03/05 04:53:35;;;;;;;1.37;1.30;;;2.80;99.90;;;;;;5136358;27;20443;-76
2023/03/05 04:56:05;;;;;;;1.80;1.47;;;2.80;99.90;;;;;;5136257;27;20822;-75
2023/03/05 04:58:31;;;;;;;3.73;0.80;;;2.80;99.90;;;;;;5136481;27;20466;-76
2023/03/05 05:01:01;;;;;;;1.13;0.63;;;2.90;99.90;;;;;;5136498;27;20451;-75
2023/03/05 05:03:28;;;;;;;1.60;1.13;;;2.90;99.90;;;;;;5136185;27;20997;-75
2023/03/05 05:05:55;;;;;;;0.43;0.43;;;2.90;99.90;;;;;;5136295;27;20486;-76
2023/03/05 05:08:22;;;;;;;3.50;1.07;;;2.90;99.90;;;;;;5136385;27;20541;-76
2023/03/05 05:10:56;;;;;;;8.80;0.83;;;2.90;99.90;;;;;;5136338;27;20810;-76
2023/03/05 05:13:24;;;;;;;0.30;0.30;;;2.90;99.90;;;;;;5136291;27;20426;-76
2023/03/05 05:15:51;;;;;;;0.80;0.70;;;2.90;99.90;;;;;;5136253;27;20438;-75
2023/03/05 05:18:17;;;;;;;0.77;0.43;;;2.90;99.90;;;;;;5136151;27;20470;-75
2023/03/05 05:20:44;;;;;;;1.67;0.67;;;2.90;99.90;;;;;;5135799;27;20934;-76
2023/03/05 05:23:11;;;;;;;5.40;2.00;;;2.90;99.90;;;;;;5136059;27;20447;-75
2023/03/05 05:25:37;;;;;;;2.40;0.80;;;2.90;99.90;;;;;;5135913;27;20505;-76
2023/03/05 05:28:04;;;;;;;2.10;0.67;;;2.90;99.90;;;;;;5135918;27;20466;-75
2023/03/05 05:30:33;;;;;;;0.57;0.50;;;2.90;99.90;;;;;;5135924;27;20449;-75
2023/03/05 05:32:59;;;;;;;12.37;1.30;;;2.80;99.90;;;;;;5135603;27;20822;-75
2023/03/05 05:35:26;;;;;;;2.10;1.13;;;2.80;99.90;;;;;;5135555;27;20838;-76
2023/03/05 05:37:53;;;;;;;1.80;1.13;;;2.80;99.90;;;;;;5135767;27;20470;-76
2023/03/05 05:40:20;;;;;;;1.67;1.00;;;2.80;99.90;;;;;;5135731;27;20447;-76
2023/03/05 05:42:47;;;;;;;1.07;0.87;;;2.80;99.90;;;;;;5135721;27;20447;-75
2023/03/05 05:45:13;;;;;;;1.20;1.20;;;2.80;99.90;;;;;;5135498;27;20474;-76
2023/03/05 05:47:41;;;;;;;15.90;1.57;;;2.70;99.90;;;;;;5135208;27;20854;-76
2023/03/05 05:50:10;;;;;;;1.23;0.40;;;2.70;99.90;;;;;;5135411;27;20853;-76
2023/03/05 05:52:36;;;;;;;0.90;0.73;;;2.70;99.90;;;;;;5135456;27;20811;-75
2023/03/05 05:55:04;;;;;;;0.40;0.37;;;2.80;99.90;;;;;;5135422;27;20454;-76
2023/03/05 05:57:31;;;;;;;0.87;0.50;;;2.80;99.90;;;;;;5135377;27;20467;-75
2023/03/05 05:59:57;;;;;;;3.03;0.70;;;2.80;99.90;;;;;;5135315;27;20447;-75
2023/03/05 06:02:26;;;;;;;1.93;0.63;;;2.80;99.90;;;;;;5135314;27;20448;-76
2023/03/05 06:04:54;;;;;;;2.73;0.67;;;2.80;99.90;;;;;;5135089;27;20457;-75
2023/03/05 06:07:21;;;;;;;5.50;1.13;;;2.80;99.90;;;;;;5134796;27;20462;-75
2023/03/05 06:09:47;;;;;;;3.57;0.80;;;2.80;99.90;;;;;;5134828;27;20451;-76
2023/03/05 06:12:14;;;;;;;1.00;0.60;;;2.80;99.90;;;;;;5135069;27;20489;-76
2023/03/05 06:14:41;;;;;;;1.43;1.33;;;2.80;99.90;;;;;;5135078;27;20447;-75
2023/03/05 06:17:07;;;;;;;1.23;0.50;;;2.80;99.90;;;;;;5134955;27;20438;-75
2023/03/05 06:19:34;;;;;;;3.67;1.23;;;2.80;99.90;;;;;;5135013;27;20450;-75
2023/03/05 06:22:02;;;;;;;1.40;1.07;;;2.80;99.90;;;;;;5134924;27;20443;-75
2023/03/05 06:24:29;;;;;;;3.80;1.20;;;2.80;99.90;;;;;;5134905;27;20439;-75
2023/03/05 06:26:55;;;;;;;2.43;0.93;;;2.80;99.90;;;;;;5134386;27;21005;-76
2023/03/05 06:29:22;;;;;;;3.60;0.97;;;2.80;99.90;;;;;;5134814;27;20595;-75
2023/03/05 06:31:49;;;;;;;2.20;0.80;;;2.90;99.90;;;;;;5134730;27;20443;-75
2023/03/05 06:34:15;;;;;;;1.97;0.53;;;2.90;99.90;;;;;;5134407;27;20997;-75
2023/03/05 06:36:43;;;;;;;4.43;0.97;;;2.90;99.90;;;;;;5134392;27;20497;-75
2023/03/05 06:39:11;;;;;;;4.20;0.93;;;3.00;99.90;;;;;;5134605;27;20469;-75
2023/03/05 06:41:37;;;;;;;1.33;1.23;;;3.00;99.90;;;;;;5134652;27;20439;-76
2023/03/05 06:44:04;;;;;;;0.37;0.37;;;3.10;99.90;;;;;;5134505;27;20503;-76
2023/03/05 06:46:33;;;;;;;1.47;0.50;;;3.10;99.90;;;;;;5134132;27;20894;-76
2023/03/05 06:49:02;;;;;;;0.30;0.30;;;3.10;99.90;;;;;;5134503;27;20478;-75
2023/03/05 06:51:31;;;;;;;1.43;1.23;;;3.10;99.90;;;;;;5134163;27;20863;-76
2023/03/05 06:54:01;;;;;;;1.33;0.60;;;3.10;99.90;;;;;;5134202;27;20446;-76
2023/03/05 06:56:29;;;;;;;0.43;0.43;;;3.10;99.90;;;;;;5134479;27;20431;-76
2023/03/05 06:58:56;;;;;;;0.47;0.47;;;3.20;99.90;;;;;;5134367;27;20463;-76
2023/03/05 07:01:23;;;;;;;1.10;0.97;;;3.20;99.90;;;;;;5133892;27;20469;-75
2023/03/05 07:03:51;;;;;;;0.87;0.50;;;3.20;99.90;;;;;;5134405;27;20859;-75
2023/03/05 07:06:18;;;;;;;0.50;0.40;;;3.20;99.90;;;;;;5133952;27;20483;-75
2023/03/05 07:08:45;;;;;;;2.93;0.70;;;3.30;99.90;;;;;;5134266;27;20532;-75
2023/03/05 07:11:13;;;;;;;1.13;1.13;;;3.30;99.90;;;;;;5133993;27;20961;-76
2023/03/05 07:13:43;;;;;;;2.97;0.83;;;3.30;99.90;;;;;;5134310;27;20858;-76
2023/03/05 07:16:13;;;;;;;2.60;0.80;;;3.30;99.90;;;;;;5134243;27;20470;-76
2023/03/05 07:18:40;;;;;;;2.63;0.87;;;3.30;99.90;;;;;;5134230;27;20458;-76
2023/03/05 07:21:08;;;;;;;6.23;1.00;;;3.40;99.90;;;;;;5133893;27;20926;-75
2023/03/05 07:23:35;;;;;;;3.97;0.63;;;3.40;99.90;;;;;;5134217;27;20470;-75
2023/03/05 07:26:03;;;;;;;0.47;0.47;;;3.50;99.90;;;;;;5134130;27;20489;-79
2023/03/05 07:28:30;;;;;;;1.07;0.73;;;3.50;99.90;;;;;;5133817;27;21045;-79
2023/03/05 07:30:59;;;;;;;2.00;0.97;;;3.50;99.90;;;;;;5134165;27;20451;-79
2023/03/05 07:33:26;;;;;;;3.33;1.13;;;3.60;99.90;;;;;;5134160;27;20442;-79
2023/03/05 07:35:53;;;;;;;1.03;0.93;;;3.60;99.90;;;;;;5133722;27;20527;-79
2023/03/05 07:38:20;;;;;;;0.90;0.80;;;3.60;99.90;;;;;;5134014;27;20466;-79
2023/03/05 07:40:47;;;;;;;0.93;0.70;;;3.60;99.90;;;;;;5134011;27;20485;-79
2023/03/05 07:43:13;;;;;;;3.07;1.10;;;3.70;99.90;;;;;;5134019;27;20446;-79
2023/03/05 07:45:41;;;;;;;0.70;0.70;;;3.80;99.90;;;;;;5133931;27;20495;-79
2023/03/05 07:48:13;;;;;;;2.50;1.43;;;3.80;99.90;;;;;;5133884;27;20462;-79
2023/03/05 07:50:40;;;;;;;1.47;0.60;;;3.90;99.90;;;;;;5134021;27;20431;-79
2023/03/05 07:53:07;;;;;;;0.70;0.70;;;3.80;99.90;;;;;;5133646;27;20949;-79
2023/03/05 07:55:34;;;;;;;1.30;0.93;;;3.90;99.90;;;;;;5133977;27;20497;-79
2023/03/05 07:58:01;;;;;;;1.10;0.43;;;4.00;99.90;;;;;;5133536;27;20541;-79
2023/03/05 08:00:28;;;;;;;0.90;0.60;;;4.00;99.90;;;;;;5133531;27;20434;-79
2023/03/05 08:02:54;;;;;;;7.53;1.07;;;4.00;99.90;;;;;;5133838;27;20447;-79
2023/03/05 08:05:22;;;;;;;2.53;0.80;;;4.10;99.90;;;;;;5133832;27;20438;-79
2023/03/05 08:07:49;;;;;;;0.43;0.43;;;4.10;99.90;;;;;;5133688;27;20483;-79
2023/03/05 08:10:16;;;;;;;3.10;0.70;;;4.10;99.90;;;;;;5133440;27;20457;-79
2023/03/05 08:12:43;;;;;;;0.73;0.50;;;4.10;99.90;;;;;;5133791;27;20454;-79
2023/03/05 08:15:11;;;;;;;1.70;1.03;;;4.20;99.90;;;;;;5137194;27;20438;-79
2023/03/05 08:17:37;;;;;;;1.70;1.03;;;4.20;99.90;;;;;;5137372;27;20459;-79
2023/03/05 08:20:09;;;;;;;1.13;0.60;;;4.20;99.90;;;;;;5137326;27;20452;-79
2023/03/05 08:22:38;;;;;;;1.90;1.33;;;4.30;99.90;;;;;;5137399;27;20429;-79
2023/03/05 08:25:07;;;;;;;0.60;0.40;;;4.30;99.90;;;;;;5137253;27;20443;-79
2023/03/05 08:27:33;;;;;;;1.00;0.57;;;4.30;99.90;;;;;;5137076;27;20864;-79
2023/03/05 08:30:01;;;;;;;1.07;1.07;;;4.30;99.90;;;;;;5137134;27;20453;-79
2023/03/05 08:32:28;;;;;;;1.23;0.70;;;4.30;99.90;;;;;;5137121;27;20479;-79
2023/03/05 08:34:57;;;;;;;0.93;0.87;;;4.40;99.90;;;;;;5136902;27;20447;-79
2023/03/05 08:37:24;;;;;;;1.43;0.60;;;4.50;99.90;;;;;;5136462;27;20536;-79
2023/03/05 08:39:52;;;;;;;4.03;1.50;;;4.50;99.90;;;;;;5136601;27;20934;-79
2023/03/05 08:42:18;;;;;;;0.60;0.60;;;4.60;99.90;;;;;;5136962;27;20453;-79
2023/03/05 08:44:45;;;;;;;1.37;0.50;;;4.60;99.90;;;;;;5136843;27;20458;-79
2023/03/05 08:47:12;;;;;;;0.97;0.70;;;4.70;99.90;;;;;;5136684;27;20470;-79
2023/03/05 08:49:39;;;;;;;2.20;1.17;;;4.70;99.90;;;;;;5136790;27;20446;-79
2023/03/05 08:52:06;;;;;;;0.70;0.70;;;4.80;99.90;;;;;;5136710;27;20446;-79
2023/03/05 08:54:33;;;;;;;0.70;0.70;;;4.80;99.90;;;;;;5136782;27;20442;-79
2023/03/05 08:57:01;;;;;;;8.80;0.83;;;4.90;99.90;;;;;;5136264;27;20930;-79
2023/03/05 08:59:29;;;;;;;3.00;0.83;;;4.90;99.90;;;;;;5136535;27;20449;-83
2023/03/05 09:01:59;;;;;;;8.80;1.20;;;5.00;99.90;;;;;;5136155;27;20899;-82
2023/03/05 09:04:26;;;;;;;1.00;0.80;;;4.90;99.90;;;;;;5136273;27;20505;-83
2023/03/05 09:06:53;;;;;;;3.37;1.60;;;5.20;99.90;;;;;;5136284;27;20880;-82
2023/03/05 09:09:21;;;;;;;5.30;1.10;;;5.20;99.90;;;;;;5136405;27;20446;-82
2023/03/05 09:11:48;;;;;;;1.80;0.40;;;5.30;99.90;;;;;;5136362;27;20446;-82
2023/03/05 09:14:16;;;;;;;2.00;0.70;;;5.40;99.90;;;;;;5136279;27;20446;-82
2023/03/05 09:16:43;;;;;;;2.50;2.30;;;5.40;99.90;;;;;;5136265;27;20446;-82
2023/03/05 09:19:11;;;;;;;0.60;0.43;;;5.50;99.90;;;;;;5136133;27;20839;-82
2023/03/05 09:21:38;;;;;;;0.70;0.60;;;5.60;99.90;;;;;;5136111;27;20455;-83
2023/03/05 09:24:05;;;;;;;6.93;0.90;;;5.70;99.90;;;;;;5135641;27;20439;-83
2023/03/05 09:26:32;;;;;;;1.50;1.50;;;5.70;99.90;;;;;;5135984;27;20544;-82
2023/03/05 09:28:59;;;;;;;3.60;1.17;;;5.70;99.90;;;;;;5136001;27;20462;-82
2023/03/05 09:31:26;;;;;;;1.73;1.27;;;5.80;99.90;;;;;;5135950;27;20451;-83
2023/03/05 09:33:53;;;;;;;1.67;0.90;;;5.90;99.90;;;;;;5136431;27;20447;-83
2023/03/05 09:36:22;;;;;;;2.00;0.90;;;6.00;99.90;;;;;;5135444;27;20527;-83
2023/03/05 09:38:49;;;;;;;1.50;0.50;;;6.00;99.90;;;;;;5135524;27;20459;-83
2023/03/05 09:41:25;;;;;;;0.60;0.60;;;6.10;99.90;;;;;;5135410;27;21010;-83
2023/03/05 09:44:00;;;;;;;1.47;0.63;;;6.20;99.90;;;;;;5135712;27;20427;-83
2023/03/05 09:46:40;;;;;;;5.80;2.17;;;6.30;99.90;;;;;;5135594;27;20466;-83
2023/03/05 09:49:16;;;;;;;4.17;0.87;;;6.40;99.90;;;;;;5135581;27;20519;-83
2023/03/05 09:51:45;;;;;;;3.07;0.87;;;6.40;99.90;;;;;;5135188;27;20813;-82
2023/03/05 09:54:15;;;;;;;4.07;1.13;;;6.30;99.90;;;;;;5135181;27;20946;-83
2023/03/05 09:56:47;;;;;;;1.67;1.00;;;6.20;99.90;;;;;;5135283;27;20415;-83
2023/03/05 09:59:29;;;;;;;2.83;1.60;;;6.20;99.90;;;;;;5135082;27;20451;-83
2023/03/05 10:02:02;;;;;;;2.67;0.93;;;6.20;99.90;;;;;;5135047;27;20427;-83
2023/03/05 10:04:42;;;;;;;1.07;0.80;;;6.30;99.90;;;;;;5135346;27;20773;-83
2023/03/05 10:07:15;;;;;;;0.50;0.50;;;6.40;99.90;;;;;;5135133;27;20458;-83
2023/03/05 10:09:46;;;;;;;2.17;1.00;;;6.50;99.90;;;;;;5135360;27;20435;-83
2023/03/05 10:12:20;;;;;;;0.77;0.70;;;6.50;99.90;;;;;;5134968;27;20411;-83
2023/03/05 10:14:47;;;;;;;4.20;1.77;;;6.40;99.90;;;;;;5135013;27;20486;-83
2023/03/05 10:17:38;;;;;;;1.80;0.83;;;6.50;99.90;;;;;;5134630;27;20467;-83
2023/03/05 10:20:23;;;;;;;2.53;1.40;;;6.60;99.90;;;;;;5135041;27;20874;-83
2023/03/05 10:23:03;;;;;;;3.93;0.70;;;6.80;99.90;;;;;;5134989;27;20949;-82
2023/03/05 10:25:45;;;;;;;7.47;1.93;;;6.90;99.90;;;;;;5134566;27;20455;-82
2023/03/05 10:28:18;;;;;;;1.90;0.80;;;6.90;99.90;;;;;;5134807;27;20482;-82
2023/03/05 10:31:00;;;;;;;1.33;0.90;;;6.80;99.90;;;;;;5134821;27;20514;-82
2023/03/05 10:33:37;;;;;;;4.53;1.10;;;6.90;99.90;;;;;;5134846;27;20437;-83
2023/03/05 10:36:29;;;;;;;1.97;0.77;;;6.80;99.90;;;;;;5133763;27;20470;-82
2023/03/05 10:39:16;;;;;;;1.23;1.13;;;6.90;99.90;;;;;;5134645;27;20463;-82
2023/03/05 10:41:54;;;;;;;0.50;0.50;;;6.90;99.90;;;;;;5134464;27;20916;-82
2023/03/05 10:44:28;;;;;;;1.90;0.83;;;7.00;99.90;;;;;;5134370;27;20906;-82
2023/03/05 10:46:57;;;;;;;2.20;1.30;;;6.90;99.90;;;;;;5134516;27;20471;-82
2023/03/05 10:49:29;;;;;;;2.77;0.60;;;6.90;99.90;;;;;;5134274;27;20971;-82
2023/03/05 10:52:03;;;;;;;0.90;0.90;;;6.80;99.90;;;;;;5134531;27;20430;-82
2023/03/05 10:54:32;;;;;;;1.33;0.87;;;6.70;99.90;;;;;;5134235;27;20458;-82
2023/03/05 10:57:05;;;;;;;0.67;0.67;;;6.50;99.90;;;;;;5134087;27;20952;-82
2023/03/05 10:59:32;;;;;;;4.10;1.13;;;6.40;99.90;;;;;;5134296;27;20454;-83
2023/03/05 11:02:04;;;;;;;7.10;1.57;;;6.20;99.90;;;;;;5134229;27;20507;-82
2023/03/05 11:04:36;;;;;;;1.73;0.90;;;6.20;99.90;;;;;;5134261;27;20457;-82
2023/03/05 11:07:07;;;;;;;1.37;0.70;;;6.10;99.90;;;;;;5133894;28;20558;-82
2023/03/05 11:09:34;;;;;;;4.03;0.63;;;6.10;99.90;;;;;;5134445;27;20462;-83
2023/03/05 11:12:14;;;;;;;0.80;0.80;;;6.00;99.90;;;;;;5134348;27;20450;-83
2023/03/05 11:14:43;;;;;;;2.60;0.83;;;6.00;99.90;;;;;;5134341;27;20435;-83
2023/03/05 11:17:27;;;;;;;1.53;1.53;;;6.00;99.90;;;;;;5134230;27;20446;-83
2023/03/05 11:19:55;;;;;;;1.63;0.67;;;6.00;99.90;;;;;;5134315;27;20431;-83
2023/03/05 11:22:23;;;;;;;1.03;0.50;;;5.90;99.90;;;;;;5134227;27;20473;-83
2023/03/05 11:25:06;;;;;;;0.50;0.50;;;5.90;99.90;;;;;;5133924;27;20446;-83
2023/03/05 11:27:36;;;;;;;3.10;1.13;;;5.80;99.90;;;;;;5134096;27;20488;-83
2023/03/05 11:30:04;;;;;;;2.10;1.03;;;5.80;99.90;;;;;;5133932;27;20944;-83
2023/03/05 11:32:31;;;;;;;5.83;1.53;;;5.80;99.90;;;;;;5134178;27;20439;-83
2023/03/05 11:34:59;;;;;;;4.50;0.97;;;5.70;99.90;;;;;;5134073;27;20431;-83
2023/03/05 11:37:28;;;;;;;0.40;0.40;;;5.70;99.90;;;;;;5133717;27;20466;-83
2023/03/05 11:40:15;;;;;;;0.50;0.50;;;5.70;99.90;;;;;;5134067;27;20523;-84
2023/03/05 11:42:43;;;;;;;5.30;0.97;;;5.60;99.90;;;;;;5134084;27;20408;-83
2023/03/05 11:45:16;;;;;;;4.03;1.10;;;5.50;99.90;;;;;;5134007;27;20443;-83
2023/03/05 11:47:48;;;;;;;0.73;0.70;;;5.40;99.90;;;;;;5135200;27;20839;-83
2023/03/05 11:50:21;;;;;;;1.63;0.57;;;5.50;99.90;;;;;;5137995;27;20423;-83
2023/03/05 11:52:49;;;;;;;1.20;0.80;;;5.50;99.90;;;;;;5137956;27;20427;-83
2023/03/05 11:55:19;;;;;;;2.20;0.73;;;5.50;99.90;;;;;;5137855;27;20455;-83
2023/03/05 11:57:53;;;;;;;1.40;0.43;;;5.60;99.90;;;;;;5137707;27;20511;-83
2023/03/05 12:00:24;;;;;;;2.30;1.43;;;5.60;99.90;;;;;;5137519;27;20439;-83
2023/03/05 12:02:54;;;;;;;0.77;0.40;;;5.70;99.90;;;;;;5137801;27;20517;-83
2023/03/05 12:05:22;;;;;;;3.60;0.50;;;5.70;99.90;;;;;;5137769;27;20427;-83
2023/03/05 12:07:52;;;;;;;0.90;0.90;;;5.70;99.90;;;;;;5137129;27;20895;-83
2023/03/05 12:10:22;;;;;;;14.97;1.57;;;5.70;99.90;;;;;;5137544;27;20473;-82
2023/03/05 12:12:54;;;;;;;1.30;0.70;;;5.70;99.90;;;;;;5137497;27;20488;-81
2023/03/05 12:15:47;;;;;;;3.47;1.40;;;5.70;99.90;;;;;;5137496;27;20442;-82
2023/03/05 12:18:24;;;;;;;0.40;0.40;;;5.70;99.90;;;;;;5137153;27;20852;-81
2023/03/05 12:21:02;;;;;;;2.00;1.33;;;5.60;99.90;;;;;;5137399;27;20460;-81
2023/03/05 12:23:29;;;;;;;1.37;0.60;;;5.60;99.90;;;;;;5137049;27;20431;-82
2023/03/05 12:25:58;;;;;;;2.33;0.83;;;5.60;99.90;;;;;;5137021;27;20851;-81
2023/03/05 12:28:55;;;;;;;8.03;1.47;;;5.60;99.90;;;;;;5136776;27;20559;-81
2023/03/05 12:31:38;;;;;;;2.50;1.10;;;5.50;99.90;;;;;;5137187;27;20428;-81
2023/03/05 12:34:47;;;;;;;10.50;0.93;;;5.50;99.90;;;;;;5137170;27;20764;-81
2023/03/05 12:37:54;;;;;;;2.40;0.63;;;5.40;99.90;;;;;;5136566;27;20482;-83
2023/03/05 12:40:23;;;;;;;0.70;0.70;;;5.40;99.90;;;;;;5136512;27;20485;-82
2023/03/05 12:42:58;;;;;;;1.27;0.83;;;5.30;99.90;;;;;;5136575;27;20934;-81
2023/03/05 12:45:38;;;;;;;10.60;0.67;;;5.30;99.90;;;;;;5136931;27;20438;-81
2023/03/05 12:48:35;;;;;;;0.57;0.57;;;5.30;99.90;;;;;;5136703;27;20547;-82
2023/03/05 12:51:02;;;;;;;1.13;0.60;;;5.30;99.90;;;;;;5136744;27;20451;-81
2023/03/05 12:53:30;;;;;;;1.70;1.17;;;5.30;99.90;;;;;;5136358;27;20865;-81
2023/03/05 12:56:02;;;;;;;2.50;0.80;;;5.30;99.90;;;;;;5136729;27;20438;-82
2023/03/05 12:58:38;;;;;;;8.60;1.20;;;5.30;99.90;;;;;;5136364;27;20842;-81
2023/03/05 13:01:15;;;;;;;0.40;0.40;;;5.30;99.90;;;;;;5136295;27;20462;-81
2023/03/05 13:03:46;;;;;;;0.30;0.30;;;5.40;99.90;;;;;;5136264;27;20427;-81
2023/03/05 13:06:26;;;;;;;1.77;1.67;;;5.40;99.90;;;;;;5136565;27;20427;-82
2023/03/05 13:09:00;;;;;;;2.53;1.53;;;5.50;99.90;;;;;;5136329;27;20482;-81